sensor_id;sensor_type;location;lat;lon;timestamp;pressure;altitude;pressure_sealevel;temperature;humidity
76122;BME280;64853;53.200;6.080;2023-05-10T00:01:11;100751.13;;;19.92;48.72
76122;BME280;64853;53.200;6.080;2023-05-10T00:06:03;100757.38;;;19.83;48.87
76122;BME280;64853;53.200;6.080;2023-05-10T00:10:55;100736.44;;;19.77;48.85
76122;BME280;64853;53.200;6.080;2023-05-10T00:15:47;100742.78;;;19.78;48.91
76122;BME280;64853;53.200;6.080;2023-05-10T00:20:38;100736.09;;;19.46;49.25
76122;BME280;64853;53.200;6.080;2023-05-10T00:25:30;100732.94;;;19.15;49.96
76122;BME280;64853;53.200;6.080;2023-05-10T00:30:23;100730.16;;;18.96;50.30
76122;BME280;64853;53.200;6.080;2023-05-10T00:35:14;100724.22;;;18.88;50.86
76122;BME280;64853;53.200;6.080;2023-05-10T00:40:07;100728.91;;;18.88;50.58
76122;BME280;64853;53.200;6.080;2023-05-10T00:44:58;100728.97;;;18.83;50.48
76122;BME280;64853;53.200;6.080;2023-05-10T00:49:51;100720.25;;;18.70;51.12
76122;BME280;64853;53.200;6.080;2023-05-10T00:54:43;100730.69;;;18.73;50.98
76122;BME280;64853;53.200;6.080;2023-05-10T00:59:34;100720.38;;;18.60;51.30
76122;BME280;64853;53.200;6.080;2023-05-10T01:04:26;100720.41;;;18.36;51.71
76122;BME280;64853;53.200;6.080;2023-05-10T01:09:20;100720.41;;;18.07;52.01
76122;BME280;64853;53.200;6.080;2023-05-10T01:14:12;100725.31;;;17.46;53.36
76122;BME280;64853;53.200;6.080;2023-05-10T01:19:04;100721.75;;;17.45;53.70
76122;BME280;64853;53.200;6.080;2023-05-10T01:29:58;100728.44;;;17.34;54.02
76122;BME280;64853;53.200;6.080;2023-05-10T01:35:00;100718.56;;;16.63;55.71
76122;BME280;64853;53.200;6.080;2023-05-10T01:39:58;100725.22;;;16.46;56.18
76122;BME280;64853;53.200;6.080;2023-05-10T01:45:00;100723.06;;;16.38;56.76
76122;BME280;64853;53.200;6.080;2023-05-10T01:49:56;100728.03;;;16.10;57.19
76122;BME280;64853;53.200;6.080;2023-05-10T01:54:55;100723.94;;;15.92;57.83
76122;BME280;64853;53.200;6.080;2023-05-10T01:59:49;100728.88;;;16.00;57.73
76122;BME280;64853;53.200;6.080;2023-05-10T02:04:42;100726.63;;;16.38;56.90
76122;BME280;64853;53.200;6.080;2023-05-10T02:09:36;100732.84;;;16.70;56.27
76122;BME280;64853;53.200;6.080;2023-05-10T02:14:28;100727.44;;;16.49;56.78
76122;BME280;64853;53.200;6.080;2023-05-10T02:19:22;100732.41;;;16.47;56.68
76122;BME280;64853;53.200;6.080;2023-05-10T02:24:15;100731.25;;;16.58;56.42
76122;BME280;64853;53.200;6.080;2023-05-10T02:29:09;100736.25;;;16.26;57.20
76122;BME280;64853;53.200;6.080;2023-05-10T02:34:02;100732.44;;;16.06;57.98
76122;BME280;64853;53.200;6.080;2023-05-10T02:38:55;100750.31;;;15.98;58.48
76122;BME280;64853;53.200;6.080;2023-05-10T02:43:49;100738.78;;;16.01;58.38
76122;BME280;64853;53.200;6.080;2023-05-10T02:48:43;100734.38;;;15.95;58.74
76122;BME280;64853;53.200;6.080;2023-05-10T02:53:36;100733.53;;;15.69;59.71
76122;BME280;64853;53.200;6.080;2023-05-10T02:58:29;100740.69;;;15.44;60.06
76122;BME280;64853;53.200;6.080;2023-05-10T03:03:21;100739.88;;;15.44;60.31
76122;BME280;64853;53.200;6.080;2023-05-10T03:08:14;100732.47;;;15.60;59.46
76122;BME280;64853;53.200;6.080;2023-05-10T03:13:11;100739.88;;;15.69;59.32
76122;BME280;64853;53.200;6.080;2023-05-10T03:18:07;100743.97;;;15.72;59.25
76122;BME280;64853;53.200;6.080;2023-05-10T03:23:05;100741.78;;;15.84;58.59
76122;BME280;64853;53.200;6.080;2023-05-10T03:28:01;100748.09;;;16.00;58.38
76122;BME280;64853;53.200;6.080;2023-05-10T03:32:52;100739.00;;;16.20;58.02
76122;BME280;64853;53.200;6.080;2023-05-10T03:37:44;100747.25;;;16.31;57.20
76122;BME280;64853;53.200;6.080;2023-05-10T03:42:37;100754.41;;;16.47;57.19
76122;BME280;64853;53.200;6.080;2023-05-10T03:47:29;100751.63;;;16.52;56.86
76122;BME280;64853;53.200;6.080;2023-05-10T03:52:21;100759.28;;;16.61;56.55
76122;BME280;64853;53.200;6.080;2023-05-10T03:57:13;100765.88;;;16.70;56.50
76122;BME280;64853;53.200;6.080;2023-05-10T04:02:04;100768.88;;;16.73;56.20
76122;BME280;64853;53.200;6.080;2023-05-10T04:06:57;100758.72;;;16.74;56.24
76122;BME280;64853;53.200;6.080;2023-05-10T04:11:48;100773.50;;;16.83;56.04
76122;BME280;64853;53.200;6.080;2023-05-10T04:16:40;100771.28;;;16.90;55.89
76122;BME280;64853;53.200;6.080;2023-05-10T04:21:31;100774.59;;;16.98;55.42
76122;BME280;64853;53.200;6.080;2023-05-10T04:26:25;100771.81;;;16.98;55.45
76122;BME280;64853;53.200;6.080;2023-05-10T04:31:16;100772.91;;;17.02;55.63
76122;BME280;64853;53.200;6.080;2023-05-10T04:36:08;100783.06;;;17.06;55.28
76122;BME280;64853;53.200;6.080;2023-05-10T04:41:06;100786.06;;;17.10;54.94
76122;BME280;64853;53.200;6.080;2023-05-10T04:45:59;100786.63;;;17.12;54.93
76122;BME280;64853;53.200;6.080;2023-05-10T04:50:51;100794.88;;;17.12;54.90
76122;BME280;64853;53.200;6.080;2023-05-10T04:55:42;100793.75;;;17.13;55.09
76122;BME280;64853;53.200;6.080;2023-05-10T05:00:34;100803.16;;;17.12;54.89
76122;BME280;64853;53.200;6.080;2023-05-10T05:05:27;100819.94;;;17.10;54.98
76122;BME280;64853;53.200;6.080;2023-05-10T05:10:18;100816.09;;;17.06;54.90
76122;BME280;64853;53.200;6.080;2023-05-10T05:15:10;100824.31;;;17.11;55.05
76122;BME280;64853;53.200;6.080;2023-05-10T05:20:03;100823.22;;;17.18;54.77
76122;BME280;64853;53.200;6.080;2023-05-10T05:24:57;100836.16;;;17.22;54.43
76122;BME280;64853;53.200;6.080;2023-05-10T05:29:49;100841.91;;;17.26;54.45
76122;BME280;64853;53.200;6.080;2023-05-10T05:34:40;100844.94;;;17.24;54.45
76122;BME280;64853;53.200;6.080;2023-05-10T05:39:32;100851.31;;;17.25;54.38
76122;BME280;64853;53.200;6.080;2023-05-10T05:44:25;100859.28;;;17.26;54.47
76122;BME280;64853;53.200;6.080;2023-05-10T05:49:18;100857.63;;;17.25;54.28
76122;BME280;64853;53.200;6.080;2023-05-10T05:54:09;100867.50;;;17.31;54.51
76122;BME280;64853;53.200;6.080;2023-05-10T05:59:01;100875.44;;;17.43;54.43
76122;BME280;64853;53.200;6.080;2023-05-10T06:03:53;100882.25;;;17.61;54.62
76122;BME280;64853;53.200;6.080;2023-05-10T06:08:45;100883.50;;;17.79;54.38
76122;BME280;64853;53.200;6.080;2023-05-10T06:13:36;100885.34;;;17.94;54.18
76122;BME280;64853;53.200;6.080;2023-05-10T06:18:28;100888.06;;;18.05;53.87
76122;BME280;64853;53.200;6.080;2023-05-10T06:23:20;100883.34;;;18.10;53.73
76122;BME280;64853;53.200;6.080;2023-05-10T06:28:12;100893.72;;;18.24;53.54
76122;BME280;64853;53.200;6.080;2023-05-10T06:33:03;100895.03;;;18.31;53.44
76122;BME280;64853;53.200;6.080;2023-05-10T06:37:55;100906.56;;;18.38;53.33
76122;BME280;64853;53.200;6.080;2023-05-10T06:42:48;100914.81;;;18.44;52.89
76122;BME280;64853;53.200;6.080;2023-05-10T06:47:40;100908.72;;;18.47;52.79
76122;BME280;64853;53.200;6.080;2023-05-10T06:52:32;100921.63;;;18.51;52.85
76122;BME280;64853;53.200;6.080;2023-05-10T06:57:23;100924.06;;;18.58;52.62
76122;BME280;64853;53.200;6.080;2023-05-10T07:02:16;100925.66;;;18.64;52.80
76122;BME280;64853;53.200;6.080;2023-05-10T07:07:07;100926.19;;;18.66;52.62
76122;BME280;64853;53.200;6.080;2023-05-10T07:11:59;100919.28;;;18.69;52.71
76122;BME280;64853;53.200;6.080;2023-05-10T07:16:51;100936.38;;;18.71;52.76
76122;BME280;64853;53.200;6.080;2023-05-10T07:21:44;100934.38;;;18.76;52.41
76122;BME280;64853;53.200;6.080;2023-05-10T07:26:36;100932.75;;;18.75;52.15
76122;BME280;64853;53.200;6.080;2023-05-10T07:31:27;100951.22;;;18.80;52.12
76122;BME280;64853;53.200;6.080;2023-05-10T07:36:19;100948.69;;;18.84;52.13
76122;BME280;64853;53.200;6.080;2023-05-10T07:41:12;100947.59;;;18.85;51.78
76122;BME280;64853;53.200;6.080;2023-05-10T07:46:04;100953.13;;;18.85;52.15
76122;BME280;64853;53.200;6.080;2023-05-10T07:50:56;100964.97;;;18.85;52.03
76122;BME280;64853;53.200;6.080;2023-05-10T07:55:50;100960.25;;;18.86;51.97
76122;BME280;64853;53.200;6.080;2023-05-10T08:00:43;100974.63;;;18.88;52.06
76122;BME280;64853;53.200;6.080;2023-05-10T08:05:34;100977.91;;;18.90;52.04
76122;BME280;64853;53.200;6.080;2023-05-10T08:10:25;100980.38;;;18.91;52.05
76122;BME280;64853;53.200;6.080;2023-05-10T08:15:17;100993.84;;;18.98;52.37
76122;BME280;64853;53.200;6.080;2023-05-10T08:20:10;100999.88;;;19.05;52.17
76122;BME280;64853;53.200;6.080;2023-05-10T08:25:03;100994.88;;;19.07;51.74
76122;BME280;64853;53.200;6.080;2023-05-10T08:29:55;101002.00;;;19.08;51.78
76122;BME280;64853;53.200;6.080;2023-05-10T08:34:46;100994.28;;;19.10;51.54
76122;BME280;64853;53.200;6.080;2023-05-10T08:39:39;101002.28;;;19.12;51.95
76122;BME280;64853;53.200;6.080;2023-05-10T08:44:32;100999.22;;;19.14;51.50
76122;BME280;64853;53.200;6.080;2023-05-10T08:49:27;100997.28;;;19.14;51.29
76122;BME280;64853;53.200;6.080;2023-05-10T08:54:22;101006.94;;;19.17;51.48
76122;BME280;64853;53.200;6.080;2023-05-10T08:59:15;101016.56;;;19.19;51.36
76122;BME280;64853;53.200;6.080;2023-05-10T09:04:07;101021.78;;;19.21;51.17
76122;BME280;64853;53.200;6.080;2023-05-10T09:08:59;101036.16;;;19.23;51.31
76122;BME280;64853;53.200;6.080;2023-05-10T09:13:50;101034.50;;;19.22;51.24
76122;BME280;64853;53.200;6.080;2023-05-10T09:18:44;101036.63;;;19.30;50.85
76122;BME280;64853;53.200;6.080;2023-05-10T09:23:36;101043.22;;;19.34;50.90
76122;BME280;64853;53.200;6.080;2023-05-10T09:28:31;101053.97;;;19.36;50.84
76122;BME280;64853;53.200;6.080;2023-05-10T09:33:23;101060.63;;;19.35;50.85
76122;BME280;64853;53.200;6.080;2023-05-10T09:38:15;101063.09;;;19.36;50.72
76122;BME280;64853;53.200;6.080;2023-05-10T09:43:07;101060.03;;;19.38;50.96
76122;BME280;64853;53.200;6.080;2023-05-10T09:47:59;101062.38;;;19.50;50.74
76122;BME280;64853;53.200;6.080;2023-05-10T09:52:53;101066.50;;;19.52;50.58
76122;BME280;64853;53.200;6.080;2023-05-10T09:57:47;101062.94;;;19.52;50.54
76122;BME280;64853;53.200;6.080;2023-05-10T10:02:39;101074.00;;;19.52;50.82
76122;BME280;64853;53.200;6.080;2023-05-10T10:07:30;101074.28;;;19.50;50.47
76122;BME280;64853;53.200;6.080;2023-05-10T10:12:22;101083.91;;;19.53;50.98
76122;BME280;64853;53.200;6.080;2023-05-10T10:17:15;101073.44;;;19.50;50.44
76122;BME280;64853;53.200;6.080;2023-05-10T10:22:07;101101.53;;;19.62;50.33
76122;BME280;64853;53.200;6.080;2023-05-10T10:27:09;101089.91;;;19.65;50.25
76122;BME280;64853;53.200;6.080;2023-05-10T10:32:10;101097.09;;;19.66;50.48
76122;BME280;64853;53.200;6.080;2023-05-10T10:37:05;101099.28;;;19.69;50.07
76122;BME280;64853;53.200;6.080;2023-05-10T10:41:58;101108.31;;;19.75;49.82
76122;BME280;64853;53.200;6.080;2023-05-10T10:47:00;101110.78;;;19.76;49.82
76122;BME280;64853;53.200;6.080;2023-05-10T10:52:20;101106.91;;;19.77;50.00
76122;BME280;64853;53.200;6.080;2023-05-10T10:57:12;101113.53;;;19.81;49.58
76122;BME280;64853;53.200;6.080;2023-05-10T11:02:06;101119.56;;;19.83;49.58
76122;BME280;64853;53.200;6.080;2023-05-10T11:07:17;101119.50;;;19.89;49.88
76122;BME280;64853;53.200;6.080;2023-05-10T11:12:09;101121.16;;;19.90;49.27
76122;BME280;64853;53.200;6.080;2023-05-10T11:17:01;101128.31;;;19.91;49.72
76122;BME280;64853;53.200;6.080;2023-05-10T11:22:12;101126.69;;;19.90;49.39
76122;BME280;64853;53.200;6.080;2023-05-10T11:27:05;101135.50;;;19.92;49.43
76122;BME280;64853;53.200;6.080;2023-05-10T11:31:58;101141.03;;;19.92;49.54
76122;BME280;64853;53.200;6.080;2023-05-10T11:36:51;101143.22;;;19.95;49.22
76122;BME280;64853;53.200;6.080;2023-05-10T11:41:47;101144.88;;;19.96;49.65
76122;BME280;64853;53.200;6.080;2023-05-10T11:46:40;101149.28;;;19.97;49.66
76122;BME280;64853;53.200;6.080;2023-05-10T11:51:33;101159.53;;;19.96;49.28
76122;BME280;64853;53.200;6.080;2023-05-10T11:56:25;101157.06;;;19.95;49.20
76122;BME280;64853;53.200;6.080;2023-05-10T12:01:17;101165.34;;;19.95;49.33
76122;BME280;64853;53.200;6.080;2023-05-10T12:06:10;101166.75;;;19.92;49.00
76122;BME280;64853;53.200;6.080;2023-05-10T12:11:06;101168.19;;;19.90;49.13
76122;BME280;64853;53.200;6.080;2023-05-10T12:15:58;101183.41;;;19.87;48.74
76122;BME280;64853;53.200;6.080;2023-05-10T12:20:51;101178.16;;;19.86;48.81
76122;BME280;64853;53.200;6.080;2023-05-10T12:25:44;101182.88;;;19.85;48.81
76122;BME280;64853;53.200;6.080;2023-05-10T12:30:37;101186.47;;;19.86;48.97
76122;BME280;64853;53.200;6.080;2023-05-10T12:35:32;101183.16;;;19.83;48.61
76122;BME280;64853;53.200;6.080;2023-05-10T12:40:24;101187.53;;;19.90;48.98
76122;BME280;64853;53.200;6.080;2023-05-10T12:45:17;101186.97;;;19.93;48.79
76122;BME280;64853;53.200;6.080;2023-05-10T12:50:09;101199.34;;;19.95;49.00
76122;BME280;64853;53.200;6.080;2023-05-10T12:55:01;101207.38;;;19.97;49.14
76122;BME280;64853;53.200;6.080;2023-05-10T12:59:54;101206.25;;;19.98;49.03
76122;BME280;64853;53.200;6.080;2023-05-10T13:04:47;101207.91;;;19.99;48.79
76122;BME280;64853;53.200;6.080;2023-05-10T13:09:39;101210.38;;;20.00;49.10
76122;BME280;64853;53.200;6.080;2023-05-10T13:14:30;101210.06;;;20.02;49.19
76122;BME280;64853;53.200;6.080;2023-05-10T13:19:22;101207.84;;;20.04;49.03
76122;BME280;64853;53.200;6.080;2023-05-10T13:24:15;101209.25;;;20.01;49.07
76122;BME280;64853;53.200;6.080;2023-05-10T13:29:07;101210.03;;;20.07;49.17
76122;BME280;64853;53.200;6.080;2023-05-10T13:33:59;101210.56;;;20.09;49.11
76122;BME280;64853;53.200;6.080;2023-05-10T13:38:50;101218.84;;;20.09;49.14
76122;BME280;64853;53.200;6.080;2023-05-10T13:43:43;101233.78;;;20.08;48.86
76122;BME280;64853;53.200;6.080;2023-05-10T13:48:34;101224.91;;;20.11;49.10
76122;BME280;64853;53.200;6.080;2023-05-10T13:53:27;101224.91;;;20.11;48.61
76122;BME280;64853;53.200;6.080;2023-05-10T13:58:18;101217.69;;;20.15;48.89
76122;BME280;64853;53.200;6.080;2023-05-10T14:03:11;101217.09;;;20.18;49.09
76122;BME280;64853;53.200;6.080;2023-05-10T14:08:03;101215.69;;;20.21;48.59
76122;BME280;64853;53.200;6.080;2023-05-10T14:12:54;101218.16;;;20.23;48.57
76122;BME280;64853;53.200;6.080;2023-05-10T14:17:46;101221.75;;;20.23;48.49
76122;BME280;64853;53.200;6.080;2023-05-10T14:22:39;101227.28;;;20.23;48.57
76122;BME280;64853;53.200;6.080;2023-05-10T14:27:31;101224.25;;;20.25;48.53
76122;BME280;64853;53.200;6.080;2023-05-10T14:32:22;101224.75;;;20.27;49.06
76122;BME280;64853;53.200;6.080;2023-05-10T14:37:14;101214.50;;;20.27;48.80
76122;BME280;64853;53.200;6.080;2023-05-10T14:42:07;101227.22;;;20.28;48.50
76122;BME280;64853;53.200;6.080;2023-05-10T14:46:58;101231.94;;;20.28;49.07
76122;BME280;64853;53.200;6.080;2023-05-10T14:51:50;101230.28;;;20.27;49.26
76122;BME280;64853;53.200;6.080;2023-05-10T14:56:41;101235.81;;;20.27;48.75
76122;BME280;64853;53.200;6.080;2023-05-10T15:01:34;101248.00;;;20.26;48.80
76122;BME280;64853;53.200;6.080;2023-05-10T15:06:30;101246.09;;;20.26;48.79
76122;BME280;64853;53.200;6.080;2023-05-10T15:11:22;101255.19;;;20.27;48.83
76122;BME280;64853;53.200;6.080;2023-05-10T15:16:14;101246.59;;;20.28;49.24
76122;BME280;64853;53.200;6.080;2023-05-10T15:21:06;101251.84;;;20.30;49.20
76122;BME280;64853;53.200;6.080;2023-05-10T15:25:58;101256.84;;;20.28;49.22
76122;BME280;64853;53.200;6.080;2023-05-10T15:30:49;101265.16;;;20.28;48.83
76122;BME280;64853;53.200;6.080;2023-05-10T15:35:41;101270.69;;;20.28;49.14
76122;BME280;64853;53.200;6.080;2023-05-10T15:40:34;101281.75;;;20.28;49.36
76122;BME280;64853;53.200;6.080;2023-05-10T15:45:25;101282.28;;;20.30;49.18
76122;BME280;64853;53.200;6.080;2023-05-10T15:50:17;101292.25;;;20.31;48.76
76122;BME280;64853;53.200;6.080;2023-05-10T15:55:08;101290.59;;;20.30;48.83
76122;BME280;64853;53.200;6.080;2023-05-10T16:00:04;101294.47;;;20.29;49.71
76122;BME280;64853;53.200;6.080;2023-05-10T16:04:56;101307.72;;;20.37;49.80
76122;BME280;64853;53.200;6.080;2023-05-10T16:09:47;101309.56;;;20.42;49.24
76122;BME280;64853;53.200;6.080;2023-05-10T16:14:39;101307.59;;;20.47;49.59
76122;BME280;64853;53.200;6.080;2023-05-10T16:19:32;101309.72;;;20.55;49.34
76122;BME280;64853;53.200;6.080;2023-05-10T16:24:23;101315.75;;;20.63;48.67
76122;BME280;64853;53.200;6.080;2023-05-10T16:29:15;101313.97;;;20.72;49.05
76122;BME280;64853;53.200;6.080;2023-05-10T16:34:06;101309.78;;;20.74;49.02
76122;BME280;64853;53.200;6.080;2023-05-10T16:38:59;101320.47;;;20.86;48.47
76122;BME280;64853;53.200;6.080;2023-05-10T16:43:51;101326.94;;;21.01;48.00
76122;BME280;64853;53.200;6.080;2023-05-10T16:48:42;101325.78;;;21.07;48.33
76122;BME280;64853;53.200;6.080;2023-05-10T16:53:34;101331.31;;;21.07;48.63
76122;BME280;64853;53.200;6.080;2023-05-10T16:58:27;101340.88;;;21.15;48.15
76122;BME280;64853;53.200;6.080;2023-05-10T17:03:18;101347.31;;;21.72;47.48
76122;BME280;64853;53.200;6.080;2023-05-10T17:08:10;101349.91;;;22.02;46.56
76122;BME280;64853;53.200;6.080;2023-05-10T17:13:01;101355.13;;;22.22;46.07
76122;BME280;64853;53.200;6.080;2023-05-10T17:17:54;101362.72;;;22.16;46.01
76122;BME280;64853;53.200;6.080;2023-05-10T17:22:46;101352.84;;;25.16;40.40
76122;BME280;64853;53.200;6.080;2023-05-10T17:27:37;101354.81;;;26.85;37.46
76122;BME280;64853;53.200;6.080;2023-05-10T17:32:28;101359.25;;;26.95;36.84
76122;BME280;64853;53.200;6.080;2023-05-10T17:37:21;101361.50;;;24.66;40.56
76122;BME280;64853;53.200;6.080;2023-05-10T17:42:13;101367.41;;;23.37;42.98
76122;BME280;64853;53.200;6.080;2023-05-10T17:47:06;101369.66;;;22.66;44.68
76122;BME280;64853;53.200;6.080;2023-05-10T17:51:57;101371.78;;;22.22;45.87
76122;BME280;64853;53.200;6.080;2023-05-10T17:56:50;101368.00;;;21.99;46.04
76122;BME280;64853;53.200;6.080;2023-05-10T18:01:42;101373.59;;;21.75;46.97
76122;BME280;64853;53.200;6.080;2023-05-10T18:06:34;101385.25;;;21.58;47.28
76122;BME280;64853;53.200;6.080;2023-05-10T18:11:26;101389.28;;;21.47;47.71
76122;BME280;64853;53.200;6.080;2023-05-10T18:16:18;101388.59;;;21.36;47.96
76122;BME280;64853;53.200;6.080;2023-05-10T18:21:10;101391.94;;;21.33;48.82
76122;BME280;64853;53.200;6.080;2023-05-10T18:26:01;101391.44;;;21.31;49.05
76122;BME280;64853;53.200;6.080;2023-05-10T18:30:53;101401.66;;;21.30;48.63
76122;BME280;64853;53.200;6.080;2023-05-10T18:35:45;101396.13;;;21.30;48.92
76122;BME280;64853;53.200;6.080;2023-05-10T18:40:37;101393.66;;;21.28;49.24
76122;BME280;64853;53.200;6.080;2023-05-10T18:45:29;101408.66;;;21.27;49.33
76122;BME280;64853;53.200;6.080;2023-05-10T18:50:20;101409.25;;;21.24;49.25
76122;BME280;64853;53.200;6.080;2023-05-10T18:55:13;101412.81;;;21.25;49.28
76122;BME280;64853;53.200;6.080;2023-05-10T19:00:06;101413.94;;;21.24;49.41
76122;BME280;64853;53.200;6.080;2023-05-10T19:04:59;101414.78;;;21.24;49.12
76122;BME280;64853;53.200;6.080;2023-05-10T19:09:51;101425.03;;;21.24;49.06
76122;BME280;64853;53.200;6.080;2023-05-10T19:14:44;101432.22;;;21.25;49.04
76122;BME280;64853;53.200;6.080;2023-05-10T19:19:35;101430.56;;;21.24;49.07
76122;BME280;64853;53.200;6.080;2023-05-10T19:24:27;101442.50;;;21.24;49.43
76122;BME280;64853;53.200;6.080;2023-05-10T19:29:18;101448.84;;;21.25;48.91
76122;BME280;64853;53.200;6.080;2023-05-10T19:34:11;101444.13;;;21.25;48.89
76122;BME280;64853;53.200;6.080;2023-05-10T19:39:02;101450.50;;;21.26;49.25
76122;BME280;64853;53.200;6.080;2023-05-10T19:43:54;101449.66;;;21.25;48.84
76122;BME280;64853;53.200;6.080;2023-05-10T19:48:46;101449.66;;;21.25;48.83
76122;BME280;64853;53.200;6.080;2023-05-10T19:53:39;101444.13;;;21.25;49.15
76122;BME280;64853;53.200;6.080;2023-05-10T19:58:34;101451.34;;;21.26;48.58
76122;BME280;64853;53.200;6.080;2023-05-10T20:03:25;101457.69;;;21.27;49.23
76122;BME280;64853;53.200;6.080;2023-05-10T20:08:17;101464.09;;;21.27;48.77
76122;BME280;64853;53.200;6.080;2023-05-10T20:13:10;101458.53;;;21.27;48.69
76122;BME280;64853;53.200;6.080;2023-05-10T20:18:01;101459.34;;;21.28;48.86
76122;BME280;64853;53.200;6.080;2023-05-10T20:22:53;101465.19;;;21.26;48.35
76122;BME280;64853;53.200;6.080;2023-05-10T20:27:45;101474.09;;;21.23;48.12
76122;BME280;64853;53.200;6.080;2023-05-10T20:32:40;101463.31;;;21.22;48.13
76122;BME280;64853;53.200;6.080;2023-05-10T20:37:32;101481.88;;;21.21;48.25
76122;BME280;64853;53.200;6.080;2023-05-10T20:42:24;101474.69;;;21.20;48.26
76122;BME280;64853;53.200;6.080;2023-05-10T20:47:15;101479.41;;;21.20;47.98
76122;BME280;64853;53.200;6.080;2023-05-10T20:52:08;101473.88;;;21.20;48.33
76122;BME280;64853;53.200;6.080;2023-05-10T20:57:00;101470.84;;;21.16;48.19
76122;BME280;64853;53.200;6.080;2023-05-10T21:01:52;101476.38;;;21.16;48.01
76122;BME280;64853;53.200;6.080;2023-05-10T21:06:44;101473.59;;;21.16;47.79
76122;BME280;64853;53.200;6.080;2023-05-10T21:11:37;101470.31;;;21.14;47.89
76122;BME280;64853;53.200;6.080;2023-05-10T21:16:28;101476.16;;;21.13;48.16
76122;BME280;64853;53.200;6.080;2023-05-10T21:21:19;101478.09;;;21.12;48.18
76122;BME280;64853;53.200;6.080;2023-05-10T21:26:11;101481.16;;;21.11;47.83
76122;BME280;64853;53.200;6.080;2023-05-10T21:31:04;101485.34;;;21.08;48.28
76122;BME280;64853;53.200;6.080;2023-05-10T21:35:56;101494.78;;;21.07;48.07
76122;BME280;64853;53.200;6.080;2023-05-10T21:40:47;101504.19;;;21.06;48.16
76122;BME280;64853;53.200;6.080;2023-05-10T21:45:38;101491.72;;;21.03;48.13
76122;BME280;64853;53.200;6.080;2023-05-10T21:50:31;101494.78;;;21.02;47.71
76122;BME280;64853;53.200;6.080;2023-05-10T21:55:23;101500.63;;;21.00;47.66
76122;BME280;64853;53.200;6.080;2023-05-10T22:00:15;101508.09;;;21.00;47.73
76122;BME280;64853;53.200;6.080;2023-05-10T22:05:08;101495.38;;;20.99;47.86
76122;BME280;64853;53.200;6.080;2023-05-10T22:10:01;101491.25;;;20.96;47.98
76122;BME280;64853;53.200;6.080;2023-05-10T22:14:52;101495.94;;;20.96;47.82
76122;BME280;64853;53.200;6.080;2023-05-10T22:19:44;101492.66;;;20.94;47.78
76122;BME280;64853;53.200;6.080;2023-05-10T22:24:35;101498.19;;;20.94;47.89
76122;BME280;64853;53.200;6.080;2023-05-10T22:29:28;101504.88;;;20.92;47.38
76122;BME280;64853;53.200;6.080;2023-05-10T22:34:20;101521.50;;;20.92;47.79
76122;BME280;64853;53.200;6.080;2023-05-10T22:39:11;101518.44;;;20.89;47.39
76122;BME280;64853;53.200;6.080;2023-05-10T22:44:02;101523.19;;;20.88;47.30
76122;BME280;64853;53.200;6.080;2023-05-10T22:48:55;101519.03;;;20.86;47.37
76122;BME280;64853;53.200;6.080;2023-05-10T22:53:47;101510.72;;;20.86;47.71
76122;BME280;64853;53.200;6.080;2023-05-10T22:58:38;101522.66;;;20.86;47.20
76122;BME280;64853;53.200;6.080;2023-05-10T23:03:30;101543.44;;;20.84;47.56
76122;BME280;64853;53.200;6.080;2023-05-10T23:08:22;101549.25;;;20.82;47.60
76122;BME280;64853;53.200;6.080;2023-05-10T23:13:14;101533.75;;;20.81;47.55
76122;BME280;64853;53.200;6.080;2023-05-10T23:18:05;101534.59;;;20.82;46.99
76122;BME280;64853;53.200;6.080;2023-05-10T23:22:58;101523.81;;;20.80;46.97
76122;BME280;64853;53.200;6.080;2023-05-10T23:27:51;101528.78;;;20.78;47.33
76122;BME280;64853;53.200;6.080;2023-05-10T23:32:43;101527.16;;;20.77;47.47
76122;BME280;64853;53.200;6.080;2023-05-10T23:37:34;101519.94;;;20.76;46.96
76122;BME280;64853;53.200;6.080;2023-05-10T23:42:26;101521.09;;;20.75;47.06
76122;BME280;64853;53.200;6.080;2023-05-10T23:47:19;101517.47;;;20.74;46.90
76122;BME280;64853;53.200;6.080;2023-05-10T23:52:10;101521.38;;;20.73;47.38
76122;BME280;64853;53.200;6.080;2023-05-10T23:57:02;101529.97;;;20.72;46.80
